createdAt,value
2019-06-07T00:01:53.540Z,75.81
2019-06-07T00:06:57.738Z,76.05
2019-06-07T00:12:02.052Z,75.82
2019-06-07T00:17:07.915Z,76.93
2019-06-07T00:22:19.571Z,75.95
2019-06-07T00:27:22.290Z,75.54
2019-06-07T00:32:25.429Z,76.64
2019-06-07T00:37:29.634Z,75.68
2019-06-07T00:42:33.833Z,74.70
2019-06-07T00:47:38.132Z,72.45
2019-06-07T00:53:13.186Z,73.00
2019-06-07T00:57:48.376Z,72.13
2019-06-07T01:02:52.581Z,71.93
2019-06-07T01:07:56.890Z,73.25
2019-06-07T01:13:03.610Z,73.85
2019-06-07T01:23:59.713Z,74.44
2019-06-07T01:28:27.744Z,74.58
2019-06-07T01:33:50.389Z,74.50
2019-06-07T01:38:38.515Z,75.26
2019-06-07T01:43:42.711Z,71.99
2019-06-07T01:48:49.869Z,72.52
2019-06-07T01:54:41.531Z,72.94
2019-06-07T01:58:58.815Z,74.43
2019-06-07T02:04:03.493Z,73.77
2019-06-07T02:09:08.282Z,71.31
2019-06-07T02:14:12.523Z,70.55
2019-06-07T02:19:16.681Z,71.17
2019-06-07T02:24:24.446Z,71.17
2019-06-07T02:29:30.267Z,71.69
2019-06-07T02:34:38.758Z,72.52
2019-06-07T02:39:41.086Z,73.42
2019-06-07T02:44:44.565Z,73.22
2019-06-07T02:49:48.790Z,73.02
2019-06-07T02:54:52.979Z,73.19
2019-06-07T03:00:16.559Z,73.82
2019-06-07T03:05:03.606Z,74.30
2019-06-07T03:10:09.289Z,75.13
2019-06-07T03:15:31.966Z,74.33
2019-06-07T03:20:20.686Z,74.31
2019-06-07T03:25:26.327Z,74.71
2019-06-07T03:30:52.231Z,73.95
2019-06-07T03:35:37.613Z,73.36
2019-06-07T03:40:41.873Z,73.58
2019-06-07T03:45:46.068Z,73.90
2019-06-07T03:51:04.136Z,73.17
2019-06-07T03:55:56.221Z,73.26
2019-06-07T04:01:02.176Z,72.00
2019-06-07T04:06:06.511Z,72.80
2019-06-07T04:11:10.733Z,72.75
2019-06-07T04:16:14.925Z,73.35
2019-06-07T04:21:19.127Z,72.77
2019-06-07T04:26:23.312Z,72.89
2019-06-07T04:31:28.374Z,72.46
2019-06-07T04:36:47.536Z,71.94
2019-06-07T04:41:41.333Z,72.24
2019-06-07T04:46:48.798Z,70.75
2019-06-07T04:51:54.265Z,71.14
2019-06-07T04:56:58.447Z,71.23
2019-06-07T05:02:02.665Z,70.03
2019-06-07T05:07:06.856Z,67.95
2019-06-07T05:12:11.077Z,68.56
2019-06-07T05:17:15.294Z,67.84
2019-06-07T05:22:19.490Z,69.03
2019-06-07T05:27:24.747Z,67.77
2019-06-07T05:32:29.105Z,65.93
2019-06-07T05:37:35.790Z,64.91
2019-06-07T05:42:45.887Z,64.92
2019-06-07T05:47:50.739Z,65.17
2019-06-07T05:52:52.659Z,65.17
2019-06-07T05:57:56.852Z,65.27
2019-06-07T06:03:05.676Z,64.21
2019-06-07T06:08:07.074Z,63.59
2019-06-07T06:13:11.271Z,63.00
2019-06-07T06:18:16.123Z,63.10
2019-06-07T06:23:20.388Z,62.37
2019-06-07T06:28:24.690Z,62.16
2019-06-07T06:33:34.507Z,61.30
2019-06-07T06:38:34.822Z,60.34
2019-06-07T06:43:41.464Z,59.89
2019-06-07T06:48:50.922Z,57.95
2019-06-07T06:53:52.620Z,57.95
2019-06-07T06:59:35.185Z,56.13
2019-06-07T07:04:12.003Z,55.02
2019-06-07T07:09:09.518Z,54.10
2019-06-07T07:14:13.705Z,54.64
2019-06-07T07:19:17.934Z,51.79
2019-06-07T07:24:25.268Z,51.95
2019-06-07T07:29:29.509Z,51.95
2019-06-07T07:34:36.988Z,53.72
2019-06-07T07:39:40.153Z,52.38
2019-06-07T07:44:45.020Z,52.38
2019-06-07T07:49:53.006Z,52.13
2019-06-07T07:54:58.341Z,51.18
2019-06-07T08:00:47.899Z,50.85
2019-06-07T08:05:25.239Z,51.75
2019-06-07T08:10:14.251Z,50.83
2019-06-07T08:15:18.516Z,50.88
2019-06-07T08:20:22.902Z,50.76
2019-06-07T08:25:27.148Z,50.44
2019-06-07T08:30:50.669Z,49.38
2019-06-07T08:36:06.154Z,49.38
2019-06-07T08:40:43.298Z,49.87
2019-06-07T08:45:47.495Z,49.48
2019-06-07T08:50:57.063Z,49.79
2019-06-07T08:56:04.791Z,49.28
2019-06-07T09:01:06.413Z,48.22
2019-06-07T09:06:53.931Z,47.63
2019-06-07T09:11:15.443Z,48.35
2019-06-07T09:16:19.836Z,47.29
2019-06-07T09:21:24.009Z,46.03
2019-06-07T09:26:28.544Z,45.88
2019-06-07T09:31:51.190Z,45.57
2019-06-07T09:41:49.349Z,43.46
2019-06-07T09:46:47.621Z,44.78
2019-06-07T09:51:51.803Z,45.31
2019-06-07T09:56:56.000Z,45.28
2019-06-07T10:02:03.638Z,45.72
2019-06-07T10:07:16.913Z,45.21
2019-06-07T10:12:13.913Z,45.87
2019-06-07T10:17:18.117Z,45.14
2019-06-07T10:22:22.315Z,44.24
2019-06-07T10:27:26.502Z,43.65
2019-06-07T10:32:30.780Z,41.13
2019-06-07T10:37:34.919Z,40.87
2019-06-07T10:42:39.124Z,39.29
2019-06-07T10:47:43.355Z,40.22
2019-06-07T10:52:47.542Z,40.41
2019-06-07T10:57:51.752Z,39.88
2019-06-07T11:02:55.947Z,39.21
2019-06-07T11:08:00.762Z,37.94
2019-06-07T11:13:06.099Z,36.73
2019-06-07T11:18:10.418Z,37.79
2019-06-07T11:23:14.588Z,38.04
2019-06-07T11:28:18.778Z,36.44
2019-06-07T11:33:22.986Z,34.18
2019-06-07T11:38:27.187Z,35.44
2019-06-07T11:43:31.380Z,33.05
2019-06-07T11:48:35.564Z,33.42
2019-06-07T11:53:39.882Z,31.56
2019-06-07T11:58:44.073Z,31.50
2019-06-07T12:03:48.270Z,29.31
2019-06-07T12:08:52.467Z,28.80
2019-06-07T12:13:56.852Z,31.21
2019-06-07T12:19:01.063Z,28.38
2019-06-07T12:24:05.454Z,30.03
2019-06-07T12:29:10.742Z,29.42
2019-06-07T12:34:15.547Z,30.00
2019-06-07T12:39:20.140Z,28.36
2019-06-07T12:44:24.416Z,29.44
2019-06-07T12:49:28.657Z,27.89
2019-06-07T12:54:32.895Z,27.82
2019-06-07T12:59:37.046Z,28.14
2019-06-07T13:04:41.247Z,30.45
2019-06-07T13:09:45.470Z,28.71
2019-06-07T13:14:49.716Z,26.78
2019-06-07T13:19:53.903Z,26.56
2019-06-07T13:24:59.535Z,24.97
2019-06-07T13:30:09.924Z,25.46
2019-06-07T13:35:10.523Z,25.48
2019-06-07T13:40:16.397Z,26.57
2019-06-07T13:45:22.157Z,26.06
2019-06-07T13:50:26.560Z,26.48
2019-06-07T13:55:30.749Z,25.44
2019-06-07T14:00:34.946Z,26.48
2019-06-07T14:05:39.806Z,26.19
2019-06-07T14:10:44.104Z,26.65
2019-06-07T14:15:48.318Z,28.46
2019-06-07T14:20:52.494Z,27.21
2019-06-07T14:25:56.687Z,25.85
2019-06-07T14:31:00.900Z,25.02
2019-06-07T14:36:05.082Z,23.84
2019-06-07T14:41:09.287Z,24.44
2019-06-07T14:46:13.507Z,23.73
2019-06-07T14:51:17.719Z,23.69
2019-06-07T14:56:21.939Z,23.41
2019-06-07T15:01:26.317Z,23.45
2019-06-07T15:06:32.786Z,22.86
2019-06-07T15:11:37.014Z,23.80
2019-06-07T15:16:41.278Z,23.38
2019-06-07T15:21:45.459Z,22.03
2019-06-07T15:26:49.678Z,22.59
2019-06-07T15:31:53.934Z,23.74
2019-06-07T15:36:58.124Z,24.13
2019-06-07T15:42:02.338Z,23.84
2019-06-07T15:47:06.506Z,25.39
2019-06-07T15:52:10.748Z,24.46
2019-06-07T15:57:14.949Z,23.76
2019-06-07T16:02:19.141Z,22.73
2019-06-07T16:07:23.336Z,23.13
2019-06-07T16:12:27.546Z,24.28
2019-06-07T16:17:32.994Z,23.82
2019-06-07T16:22:37.626Z,22.48
2019-06-07T16:27:42.821Z,22.01
2019-06-07T16:32:47.206Z,22.33
2019-06-07T16:37:52.432Z,21.72
2019-06-07T16:42:56.934Z,22.66
2019-06-07T16:48:01.138Z,22.62
2019-06-07T16:53:05.638Z,22.44
2019-06-07T16:58:09.848Z,24.64
2019-06-07T17:03:14.056Z,26.38
2019-06-07T17:08:18.286Z,29.00
2019-06-07T17:13:32.928Z,31.38
2019-06-07T17:18:28.485Z,32.82
2019-06-07T17:23:32.678Z,33.66
2019-06-07T17:28:36.869Z,34.73
2019-06-07T17:33:41.957Z,35.09
2019-06-07T17:38:46.594Z,35.44
2019-06-07T17:43:58.473Z,36.11
2019-06-07T17:48:57.120Z,35.85
2019-06-07T17:54:01.340Z,36.03
2019-06-07T17:59:05.569Z,36.70
2019-06-07T18:04:09.771Z,37.58
2019-06-07T18:09:14.272Z,37.71
2019-06-07T18:14:18.465Z,38.48
2019-06-07T18:19:22.692Z,38.71
2019-06-07T18:24:26.906Z,39.73
2019-06-07T18:29:31.112Z,39.85
2019-06-07T18:34:35.315Z,40.46
2019-06-07T18:39:39.763Z,41.99
2019-06-07T18:44:45.344Z,41.28
2019-06-07T18:49:49.626Z,42.91
2019-06-07T18:54:55.075Z,42.72
2019-06-07T18:59:59.467Z,43.03
2019-06-07T19:05:03.682Z,43.83
2019-06-07T19:10:08.703Z,45.40
2019-06-07T19:15:13.966Z,48.52
2019-06-07T19:20:20.266Z,46.15
2019-06-07T19:25:24.861Z,44.99
2019-06-07T19:30:29.070Z,46.11
2019-06-07T19:35:33.297Z,45.65
2019-06-07T19:40:37.483Z,45.60
2019-06-07T19:45:41.692Z,46.79
2019-06-07T19:50:45.902Z,47.13
2019-06-07T19:55:50.140Z,47.02
2019-06-07T20:00:55.489Z,47.44
2019-06-07T20:06:00.212Z,47.14
2019-06-07T20:11:04.865Z,47.80
2019-06-07T20:16:09.189Z,48.16
2019-06-07T20:21:13.424Z,48.21
2019-06-07T20:26:17.641Z,48.69
2019-06-07T20:31:21.862Z,48.76
2019-06-07T20:36:26.112Z,48.79
2019-06-07T20:41:30.317Z,48.89
2019-06-07T20:46:34.521Z,49.12
2019-06-07T20:51:38.723Z,49.47
2019-06-07T20:56:42.918Z,49.20
2019-06-07T21:01:47.199Z,49.65
2019-06-07T21:06:51.426Z,50.24
2019-06-07T21:11:55.688Z,50.92
2019-06-07T21:16:59.992Z,51.06
2019-06-07T21:22:04.598Z,51.35
2019-06-07T21:27:09.496Z,51.59
2019-06-07T21:32:13.836Z,52.31
2019-06-07T21:37:18.035Z,52.85
2019-06-07T21:42:22.276Z,52.87
2019-06-07T21:47:26.498Z,52.99
2019-06-07T21:52:30.697Z,53.49
2019-06-07T21:57:34.903Z,53.93
2019-06-07T22:02:39.113Z,54.78
2019-06-07T22:07:43.342Z,55.31
2019-06-07T22:12:47.571Z,55.65
2019-06-07T22:17:51.767Z,55.84
2019-06-07T22:22:55.987Z,55.79
2019-06-07T22:28:00.220Z,55.74
2019-06-07T22:33:04.427Z,56.51
2019-06-07T22:38:08.650Z,56.94
2019-06-07T22:43:13.870Z,56.86
2019-06-07T22:48:18.180Z,57.23
2019-06-07T22:53:22.376Z,57.19
2019-06-07T22:58:26.580Z,57.28
2019-06-07T23:03:30.773Z,57.90
2019-06-07T23:08:34.971Z,58.24
2019-06-07T23:13:39.199Z,58.60
2019-06-07T23:18:43.412Z,59.43
2019-06-07T23:23:47.619Z,60.12
2019-06-07T23:28:51.823Z,60.94
2019-06-07T23:33:56.028Z,61.17
2019-06-07T23:39:00.238Z,61.47
2019-06-07T23:44:04.682Z,61.80
2019-06-07T23:49:08.873Z,61.42
2019-06-07T23:54:13.719Z,61.76
2019-06-07T23:59:18.183Z,61.24
